Time;durP1;ratioP1;P1;durP2;ratioP2;P2;SDS_P1;SDS_P2;PMS_P1;PMS_P2;Temp;Humidity;BMP_temperature;BMP_pressure;BME280_temperature;BME280_humidity;BME280_pressure;Samples;Min_cycle;Max_cycle;Signal;HPM_P1;HPM_P2
2021/08/20 00:00:52;;;;;;;12.90;7.67;;;15.80;99.90;;;;;;5024566;28;21054;-50
2021/08/20 00:03:19;;;;;;;10.27;7.53;;;15.70;99.90;;;;;;5018120;28;20218;-50
2021/08/20 00:05:46;;;;;;;10.30;7.77;;;15.80;99.90;;;;;;5018061;28;20699;-50
2021/08/20 00:08:13;;;;;;;9.67;7.73;;;15.70;99.90;;;;;;5024106;28;20595;-50
2021/08/20 00:10:40;;;;;;;8.67;7.70;;;15.70;99.90;;;;;;5021180;28;20617;-50
2021/08/20 00:13:06;;;;;;;15.43;8.30;;;15.80;99.90;;;;;;5018278;28;20288;-49
2021/08/20 00:15:33;;;;;;;9.00;7.17;;;15.90;99.90;;;;;;5021532;28;20209;-49
2021/08/20 00:18:00;;;;;;;13.23;7.90;;;15.90;99.90;;;;;;5020046;28;20299;-49
2021/08/20 00:20:27;;;;;;;9.93;8.17;;;15.70;99.90;;;;;;5022461;28;20317;-49
2021/08/20 00:22:53;;;;;;;13.67;8.00;;;15.80;99.90;;;;;;5017140;28;20404;-49
2021/08/20 00:25:21;;;;;;;11.63;8.37;;;15.80;99.90;;;;;;5025496;28;20207;-49
2021/08/20 00:27:48;;;;;;;11.37;7.93;;;15.80;99.90;;;;;;5024693;28;20225;-49
2021/08/20 00:30:15;;;;;;;10.23;8.07;;;15.90;99.90;;;;;;5020323;28;20234;-50
2021/08/20 00:32:42;;;;;;;11.70;8.37;;;15.70;99.90;;;;;;5017097;28;20231;-50
2021/08/20 00:35:09;;;;;;;11.53;7.93;;;15.90;99.90;;;;;;5019309;28;20211;-49
2021/08/20 00:37:36;;;;;;;11.20;8.30;;;15.90;99.90;;;;;;5020333;28;20231;-49
2021/08/20 00:40:05;;;;;;;9.30;7.13;;;15.80;99.90;;;;;;5020882;28;20295;-50
2021/08/20 00:42:32;;;;;;;17.37;9.03;;;15.70;99.90;;;;;;5019431;28;20235;-50
2021/08/20 00:44:59;;;;;;;20.90;8.63;;;15.60;99.90;;;;;;4999143;28;20305;-49
2021/08/20 00:47:26;;;;;;;10.37;7.93;;;15.60;99.90;;;;;;5022871;28;20318;-49
2021/08/20 00:49:53;;;;;;;12.10;8.70;;;15.70;99.90;;;;;;5023052;28;20224;-49
2021/08/20 00:52:21;;;;;;;11.73;8.43;;;15.70;99.90;;;;;;5021843;28;20348;-50
2021/08/20 00:54:48;;;;;;;11.27;8.90;;;15.70;99.90;;;;;;5022174;28;20228;-49
2021/08/20 00:57:16;;;;;;;12.57;8.90;;;15.70;99.90;;;;;;5019254;28;20310;-49
2021/08/20 00:59:48;;;;;;;14.17;8.17;;;15.90;99.90;;;;;;5020591;28;20661;-49
2021/08/20 01:02:16;;;;;;;14.90;9.67;;;15.90;99.90;;;;;;5023106;28;20219;-50
2021/08/20 01:04:43;;;;;;;11.83;8.93;;;15.80;99.90;;;;;;5018155;28;20626;-50
2021/08/20 01:07:10;;;;;;;9.73;7.90;;;15.80;99.90;;;;;;5024278;28;20296;-49
2021/08/20 01:09:37;;;;;;;15.67;9.53;;;15.80;99.90;;;;;;5019783;28;20199;-50
2021/08/20 01:12:06;;;;;;;12.50;9.57;;;15.90;99.90;;;;;;5016422;28;20216;-50
2021/08/20 01:14:35;;;;;;;14.60;9.53;;;15.90;99.90;;;;;;5017861;28;22250;-50
2021/08/20 01:17:04;;;;;;;13.83;9.90;;;15.70;99.90;;;;;;5024200;28;20200;-49
2021/08/20 01:19:32;;;;;;;16.33;10.07;;;15.50;99.90;;;;;;5017004;28;20212;-49
2021/08/20 01:22:00;;;;;;;14.27;10.80;;;15.40;99.90;;;;;;5020662;28;20218;-49
2021/08/20 01:24:27;;;;;;;13.20;9.70;;;15.50;99.90;;;;;;5018941;28;20586;-49
2021/08/20 01:26:54;;;;;;;13.63;10.40;;;15.50;99.90;;;;;;5022752;28;20299;-49
2021/08/20 01:29:21;;;;;;;17.93;11.50;;;15.50;99.90;;;;;;5020161;28;20299;-48
2021/08/20 01:31:49;;;;;;;17.73;10.90;;;15.50;99.90;;;;;;5020673;28;20227;-50
2021/08/20 01:34:16;;;;;;;13.97;9.77;;;15.40;99.90;;;;;;5018262;28;20711;-49
2021/08/20 01:36:43;;;;;;;14.57;10.20;;;15.40;99.90;;;;;;5018832;28;20299;-49
2021/08/20 01:39:10;;;;;;;13.83;10.23;;;15.40;99.90;;;;;;5018084;28;20300;-49
2021/08/20 01:41:37;;;;;;;15.60;9.67;;;15.40;99.90;;;;;;5022700;28;20676;-49
2021/08/20 01:44:04;;;;;;;17.83;10.87;;;15.40;99.90;;;;;;5021917;28;20332;-49
2021/08/20 01:46:32;;;;;;;16.40;10.50;;;15.50;99.90;;;;;;5019576;28;20293;-50
2021/08/20 01:49:00;;;;;;;14.50;10.03;;;15.60;99.90;;;;;;5015136;28;20558;-50
2021/08/20 01:51:32;;;;;;;13.17;10.97;;;15.50;99.90;;;;;;5004140;28;20265;-49
2021/08/20 01:54:02;;;;;;;14.80;9.70;;;15.40;99.90;;;;;;5014299;28;20322;-49
2021/08/20 01:56:31;;;;;;;15.90;10.40;;;15.50;99.90;;;;;;5021685;28;20212;-49
2021/08/20 01:58:59;;;;;;;17.30;9.80;;;15.60;99.90;;;;;;5027904;28;20243;-50
2021/08/20 02:01:29;;;;;;;15.27;10.10;;;15.50;99.90;;;;;;5023917;28;20594;-49
2021/08/20 02:03:57;;;;;;;16.73;10.77;;;15.40;99.90;;;;;;5020127;28;20464;-49
2021/08/20 02:06:24;;;;;;;13.20;10.77;;;15.40;99.90;;;;;;5027593;28;20602;-49
2021/08/20 02:08:50;;;;;;;17.00;10.60;;;15.40;99.90;;;;;;5019130;28;20297;-49
2021/08/20 02:11:17;;;;;;;16.33;10.23;;;15.30;99.90;;;;;;5024240;28;20620;-49
2021/08/20 02:13:45;;;;;;;15.57;10.93;;;15.30;99.90;;;;;;5021600;28;20655;-50
2021/08/20 02:16:13;;;;;;;14.00;10.23;;;15.30;99.90;;;;;;5021028;28;20216;-49
2021/08/20 02:18:40;;;;;;;14.10;10.43;;;15.20;99.90;;;;;;5027131;28;21361;-49
2021/08/20 02:21:07;;;;;;;13.17;10.20;;;15.20;99.90;;;;;;5002194;28;20306;-49
2021/08/20 02:23:36;;;;;;;16.13;10.47;;;15.20;99.90;;;;;;5019081;28;20295;-50
2021/08/20 02:26:04;;;;;;;21.80;10.73;;;15.20;99.90;;;;;;5026935;28;20314;-49
2021/08/20 02:28:31;;;;;;;15.70;10.93;;;15.10;99.90;;;;;;5025901;28;20402;-50
2021/08/20 02:30:58;;;;;;;13.00;10.57;;;15.20;99.90;;;;;;5020831;28;20211;-50
2021/08/20 02:33:26;;;;;;;13.07;10.10;;;15.20;99.90;;;;;;5023722;28;20203;-50
2021/08/20 02:35:52;;;;;;;14.73;10.77;;;15.20;99.90;;;;;;5005642;28;20287;-49
2021/08/20 02:38:19;;;;;;;13.80;10.50;;;15.20;99.90;;;;;;5024012;28;20607;-49
2021/08/20 02:40:46;;;;;;;13.80;9.57;;;15.30;99.90;;;;;;5023642;28;20610;-49
2021/08/20 02:43:13;;;;;;;15.80;10.93;;;15.30;99.90;;;;;;5019591;28;20302;-49
2021/08/20 02:45:40;;;;;;;15.87;10.80;;;15.20;99.90;;;;;;5026177;28;20304;-49
2021/08/20 02:48:06;;;;;;;12.33;9.57;;;15.20;99.90;;;;;;5023950;28;20482;-49
2021/08/20 02:50:34;;;;;;;16.70;10.90;;;15.20;99.90;;;;;;4994958;28;20297;-49
2021/08/20 02:53:01;;;;;;;14.47;10.53;;;15.20;99.90;;;;;;5000266;28;20591;-49
2021/08/20 02:55:28;;;;;;;16.43;10.30;;;15.20;99.90;;;;;;5007667;28;20364;-50
2021/08/20 02:57:55;;;;;;;17.20;10.27;;;15.20;99.90;;;;;;5000571;28;20315;-49
2021/08/20 03:00:21;;;;;;;14.67;10.10;;;15.10;99.90;;;;;;5000293;28;20289;-49
2021/08/20 03:02:48;;;;;;;14.87;10.60;;;15.00;99.90;;;;;;4999591;28;20241;-49
2021/08/20 03:05:16;;;;;;;15.20;10.17;;;15.00;99.90;;;;;;5003095;28;20207;-50
2021/08/20 03:07:43;;;;;;;13.40;10.53;;;15.00;99.90;;;;;;4989503;28;20193;-49
2021/08/20 03:10:10;;;;;;;13.50;10.20;;;15.00;99.90;;;;;;5004768;28;20300;-49
2021/08/20 03:12:37;;;;;;;15.53;10.70;;;15.10;99.90;;;;;;5003868;28;20205;-50
2021/08/20 03:15:06;;;;;;;14.30;10.37;;;15.00;99.90;;;;;;4999351;28;20248;-49
2021/08/20 03:17:33;;;;;;;14.03;10.30;;;15.00;99.90;;;;;;5008785;28;20197;-49
2021/08/20 03:20:00;;;;;;;13.53;10.03;;;15.10;99.90;;;;;;5005456;28;20309;-49
2021/08/20 03:22:27;;;;;;;14.57;9.87;;;15.00;99.90;;;;;;5000413;28;20316;-50
2021/08/20 03:24:53;;;;;;;17.60;10.77;;;15.00;99.90;;;;;;5004078;28;20309;-49
2021/08/20 03:27:20;;;;;;;16.23;10.73;;;14.90;99.90;;;;;;4999455;28;20320;-49
2021/08/20 03:29:47;;;;;;;17.13;10.93;;;14.90;99.90;;;;;;4998695;28;20212;-49
2021/08/20 03:32:14;;;;;;;15.87;11.17;;;14.90;99.90;;;;;;4998809;28;20239;-49
2021/08/20 03:34:41;;;;;;;14.60;9.77;;;14.90;99.90;;;;;;5002967;28;20316;-49
2021/08/20 03:37:07;;;;;;;15.37;10.57;;;14.90;99.90;;;;;;5004107;28;20289;-49
2021/08/20 03:39:34;;;;;;;13.97;10.00;;;15.10;99.90;;;;;;5002326;28;20304;-49
2021/08/20 03:42:01;;;;;;;15.60;10.63;;;15.30;99.90;;;;;;5001768;28;20309;-49
2021/08/20 03:44:28;;;;;;;12.70;9.43;;;15.30;99.90;;;;;;5000232;28;20225;-50
2021/08/20 03:46:55;;;;;;;12.97;9.90;;;15.30;99.90;;;;;;5003501;28;20280;-49
2021/08/20 03:49:21;;;;;;;15.10;9.73;;;15.30;99.90;;;;;;5002682;28;20725;-49
2021/08/20 03:51:48;;;;;;;15.00;9.67;;;15.30;99.90;;;;;;5015352;28;20233;-49
2021/08/20 03:54:15;;;;;;;14.73;10.37;;;15.30;99.90;;;;;;5017292;28;20567;-50
2021/08/20 03:56:42;;;;;;;18.63;10.20;;;15.30;99.90;;;;;;5020162;28;20339;-50
2021/08/20 03:59:09;;;;;;;12.90;9.70;;;15.20;99.90;;;;;;5022164;28;20288;-50
2021/08/20 04:01:36;;;;;;;17.80;10.50;;;15.20;99.90;;;;;;5020495;28;20302;-49
2021/08/20 04:04:03;;;;;;;14.17;9.20;;;15.20;99.90;;;;;;5015505;28;20212;-50
2021/08/20 04:06:30;;;;;;;13.27;9.87;;;15.20;99.90;;;;;;5021301;28;20720;-49
2021/08/20 04:08:56;;;;;;;14.67;10.00;;;15.20;99.90;;;;;;5022048;28;20364;-49
2021/08/20 04:11:23;;;;;;;15.43;10.27;;;15.20;99.90;;;;;;5014875;28;20731;-49
2021/08/20 04:13:50;;;;;;;13.30;9.83;;;15.20;99.90;;;;;;5025076;28;20200;-49
2021/08/20 04:16:17;;;;;;;15.40;10.37;;;15.10;99.90;;;;;;5020434;28;20303;-50
2021/08/20 04:18:43;;;;;;;16.13;10.43;;;15.20;99.90;;;;;;5018682;28;20567;-49
2021/08/20 04:21:10;;;;;;;13.17;10.17;;;15.20;99.90;;;;;;5018529;28;20372;-49
2021/08/20 04:23:37;;;;;;;11.13;9.13;;;15.30;99.90;;;;;;5016455;28;20308;-49
2021/08/20 04:26:04;;;;;;;15.70;9.60;;;15.30;99.90;;;;;;5019715;28;20225;-49
2021/08/20 04:28:31;;;;;;;13.97;9.10;;;15.40;99.90;;;;;;5023209;28;20301;-50
2021/08/20 04:30:58;;;;;;;13.53;9.50;;;15.30;99.90;;;;;;5027071;28;20252;-50
2021/08/20 04:33:25;;;;;;;14.30;9.33;;;15.30;99.90;;;;;;5019136;28;20213;-50
2021/08/20 04:35:52;;;;;;;14.30;9.43;;;15.20;99.90;;;;;;5002931;28;20287;-49
2021/08/20 04:38:19;;;;;;;15.27;9.43;;;15.20;99.90;;;;;;5024710;28;20314;-49
2021/08/20 04:40:45;;;;;;;15.83;9.77;;;15.20;99.90;;;;;;5018068;28;20349;-49
2021/08/20 04:43:12;;;;;;;14.33;8.90;;;15.30;99.90;;;;;;5019697;28;20212;-49
2021/08/20 04:45:39;;;;;;;13.90;9.33;;;15.30;99.90;;;;;;5016979;28;20243;-49
2021/08/20 04:48:06;;;;;;;15.23;9.27;;;15.30;99.90;;;;;;5003826;28;20205;-49
2021/08/20 04:50:33;;;;;;;19.47;9.47;;;15.30;99.90;;;;;;5018724;28;20202;-49
2021/08/20 04:52:59;;;;;;;16.43;9.07;;;15.20;99.90;;;;;;5017918;28;20351;-49
2021/08/20 04:55:26;;;;;;;13.97;9.43;;;15.20;99.90;;;;;;5003632;28;20686;-49
2021/08/20 04:57:53;;;;;;;12.63;9.37;;;15.20;99.90;;;;;;5020530;28;20207;-50
2021/08/20 05:00:20;;;;;;;15.57;9.87;;;15.20;99.90;;;;;;5019238;28;20204;-49
2021/08/20 05:02:47;;;;;;;16.03;9.37;;;15.20;99.90;;;;;;5018008;28;20562;-49
2021/08/20 05:05:14;;;;;;;15.87;9.13;;;15.30;99.90;;;;;;5021347;28;20558;-49
2021/08/20 05:07:42;;;;;;;12.30;8.77;;;15.30;99.90;;;;;;5019584;28;20305;-50
2021/08/20 05:10:10;;;;;;;15.33;9.33;;;15.30;99.90;;;;;;5016945;28;20287;-50
2021/08/20 05:12:38;;;;;;;14.40;9.53;;;15.40;99.90;;;;;;4994424;28;20586;-50
2021/08/20 05:15:06;;;;;;;12.77;8.93;;;15.50;99.90;;;;;;5014016;28;20212;-50
2021/08/20 05:17:33;;;;;;;13.90;8.47;;;15.60;99.90;;;;;;5019895;28;20196;-50
2021/08/20 05:20:00;;;;;;;14.10;9.77;;;15.70;99.90;;;;;;5022224;28;20295;-49
2021/08/20 05:22:44;;;;;;;13.57;8.90;;;15.80;99.90;;;;;;5018010;28;20671;-50
2021/08/20 05:25:12;;;;;;;11.93;8.27;;;15.60;99.90;;;;;;5000330;28;20212;-50
2021/08/20 05:27:39;;;;;;;13.23;9.13;;;15.70;99.90;;;;;;5020939;28;20680;-49
2021/08/20 05:30:07;;;;;;;13.37;8.40;;;15.70;99.90;;;;;;5020369;28;20298;-50
2021/08/20 05:32:34;;;;;;;12.47;8.97;;;15.70;99.90;;;;;;5019866;28;20383;-50
2021/08/20 05:35:01;;;;;;;12.27;8.40;;;15.80;99.90;;;;;;5018402;28;20583;-50
2021/08/20 05:37:28;;;;;;;14.33;8.67;;;15.90;99.90;;;;;;5019511;28;20302;-50
2021/08/20 05:39:54;;;;;;;14.23;8.33;;;15.90;99.90;;;;;;5018430;28;20306;-49
2021/08/20 05:42:21;;;;;;;15.23;8.03;;;15.80;99.90;;;;;;5014751;28;20313;-50
2021/08/20 05:44:48;;;;;;;12.40;8.77;;;15.70;99.90;;;;;;5014216;28;20298;-49
2021/08/20 05:47:15;;;;;;;11.63;7.87;;;15.70;99.90;;;;;;5018237;28;20209;-49
2021/08/20 05:49:42;;;;;;;11.83;7.70;;;15.90;99.90;;;;;;4993080;28;20306;-50
2021/08/20 05:52:08;;;;;;;16.30;8.97;;;15.90;99.90;;;;;;5021638;28;20695;-50
2021/08/20 05:54:35;;;;;;;12.30;8.23;;;16.00;99.90;;;;;;5019026;28;20205;-50
2021/08/20 05:57:02;;;;;;;13.63;8.60;;;16.10;99.90;;;;;;5020117;28;20669;-49
2021/08/20 05:59:29;;;;;;;13.77;8.07;;;16.10;99.90;;;;;;5021322;28;20648;-50
2021/08/20 06:01:56;;;;;;;12.13;7.97;;;16.10;99.90;;;;;;5013048;28;20626;-50
2021/08/20 06:04:23;;;;;;;14.50;8.03;;;16.00;99.90;;;;;;5011717;28;20220;-50
2021/08/20 06:06:50;;;;;;;13.40;8.13;;;16.10;99.90;;;;;;5019930;28;20200;-49
2021/08/20 06:09:17;;;;;;;11.73;7.90;;;16.20;99.90;;;;;;5018333;28;20759;-50
2021/08/20 06:11:43;;;;;;;10.53;8.23;;;16.20;99.90;;;;;;5015969;28;20291;-50
2021/08/20 06:14:10;;;;;;;13.40;8.13;;;16.30;99.90;;;;;;5021562;28;20394;-50
2021/08/20 06:16:37;;;;;;;13.33;8.67;;;16.20;99.90;;;;;;5024533;28;20293;-50
2021/08/20 06:19:04;;;;;;;13.67;9.10;;;16.30;99.90;;;;;;5016931;28;20733;-50
2021/08/20 06:21:31;;;;;;;13.83;8.23;;;16.40;99.90;;;;;;5016577;28;20744;-50
2021/08/20 06:23:58;;;;;;;10.83;8.30;;;16.30;99.90;;;;;;5018182;28;20419;-50
2021/08/20 06:26:24;;;;;;;13.23;8.40;;;16.30;99.90;;;;;;5021128;28;20198;-50
2021/08/20 06:28:51;;;;;;;11.80;8.40;;;16.30;99.90;;;;;;5018335;28;20204;-50
2021/08/20 06:31:18;;;;;;;12.53;8.30;;;16.30;99.90;;;;;;5019598;28;20246;-50
2021/08/20 06:33:45;;;;;;;11.33;8.13;;;16.30;99.90;;;;;;5014912;28;20206;-50
2021/08/20 06:36:12;;;;;;;12.13;7.93;;;16.40;99.90;;;;;;4998775;28;20305;-50
2021/08/20 06:38:38;;;;;;;13.30;8.67;;;16.40;99.90;;;;;;5023367;28;20259;-50
2021/08/20 06:41:05;;;;;;;12.97;8.40;;;16.60;99.90;;;;;;5018086;28;20483;-50
2021/08/20 06:43:32;;;;;;;13.07;8.07;;;16.60;99.90;;;;;;5017930;28;20342;-50
2021/08/20 06:45:59;;;;;;;13.10;7.77;;;16.60;99.90;;;;;;5022806;28;20291;-50
2021/08/20 06:48:25;;;;;;;13.37;8.33;;;16.70;99.90;;;;;;5021393;28;20692;-50
2021/08/20 06:50:53;;;;;;;12.20;8.33;;;16.70;99.90;;;;;;5021854;28;20642;-51
2021/08/20 06:53:20;;;;;;;14.87;8.27;;;16.80;99.90;;;;;;5022956;28;20244;-50
2021/08/20 06:55:46;;;;;;;13.33;7.83;;;16.80;99.90;;;;;;5027244;28;20231;-51
2021/08/20 06:58:13;;;;;;;15.07;8.50;;;16.90;99.90;;;;;;5029003;28;20661;-50
2021/08/20 07:00:40;;;;;;;12.93;9.07;;;17.00;99.90;;;;;;5029772;28;20586;-50
2021/08/20 07:03:07;;;;;;;12.53;9.53;;;16.90;99.90;;;;;;5022994;28;21602;-50
2021/08/20 07:05:35;;;;;;;14.67;9.13;;;17.00;99.90;;;;;;5022730;28;21364;-49
2021/08/20 07:08:06;;;;;;;14.27;8.30;;;17.00;99.90;;;;;;5017352;28;20271;-50
2021/08/20 07:10:33;;;;;;;16.13;9.37;;;17.00;99.90;;;;;;5029074;28;20725;-50
2021/08/20 07:13:00;;;;;;;14.93;9.73;;;17.20;99.90;;;;;;5019990;28;20206;-50
2021/08/20 07:15:28;;;;;;;16.70;10.23;;;17.20;99.90;;;;;;5025355;28;20235;-50
2021/08/20 07:17:54;;;;;;;13.07;9.37;;;17.20;99.90;;;;;;5020220;28;20206;-50
2021/08/20 07:20:21;;;;;;;14.63;9.83;;;17.30;99.90;;;;;;5026764;28;20235;-50
2021/08/20 07:22:48;;;;;;;15.87;9.97;;;17.40;99.90;;;;;;5026597;28;20275;-50
2021/08/20 07:25:15;;;;;;;18.60;10.40;;;17.50;99.90;;;;;;5024281;28;20295;-50
2021/08/20 07:27:42;;;;;;;17.43;10.27;;;17.40;99.90;;;;;;5023326;28;20226;-50
2021/08/20 07:30:10;;;;;;;17.40;10.83;;;17.50;99.90;;;;;;5030278;28;20673;-50
2021/08/20 07:32:37;;;;;;;18.13;10.57;;;17.60;99.90;;;;;;5023142;28;20321;-50
2021/08/20 07:35:04;;;;;;;15.17;10.07;;;17.60;99.90;;;;;;5021318;28;20300;-50
2021/08/20 07:37:33;;;;;;;17.27;11.23;;;17.70;99.90;;;;;;5022830;28;20306;-49
2021/08/20 07:40:00;;;;;;;18.87;11.00;;;17.80;99.90;;;;;;5022053;28;20610;-49
2021/08/20 07:42:27;;;;;;;18.43;11.70;;;17.90;99.90;;;;;;5025887;28;20276;-48
2021/08/20 07:44:54;;;;;;;18.07;11.10;;;17.90;99.90;;;;;;5025756;28;20292;-49
2021/08/20 07:47:21;;;;;;;20.03;12.33;;;17.90;99.90;;;;;;5022666;28;20229;-48
2021/08/20 07:49:48;;;;;;;17.90;11.93;;;17.90;99.90;;;;;;5022864;28;20198;-50
2021/08/20 07:52:15;;;;;;;17.00;11.43;;;17.90;99.90;;;;;;5016381;28;20449;-52
2021/08/20 07:54:41;;;;;;;20.40;12.20;;;17.90;99.90;;;;;;5020952;28;20217;-50
2021/08/20 07:57:08;;;;;;;20.10;12.90;;;18.00;99.90;;;;;;5025939;28;20289;-52
2021/08/20 07:59:35;;;;;;;19.83;12.30;;;18.00;99.90;;;;;;5025137;28;20947;-50
2021/08/20 08:02:02;;;;;;;20.07;12.60;;;18.00;99.90;;;;;;5024500;28;21656;-49
2021/08/20 08:04:29;;;;;;;20.97;13.23;;;18.10;99.90;;;;;;5026361;28;20214;-52
2021/08/20 08:06:56;;;;;;;16.90;11.70;;;18.20;99.90;;;;;;5024163;28;20277;-49
2021/08/20 08:09:23;;;;;;;16.00;11.43;;;18.20;99.90;;;;;;5023209;28;20622;-50
2021/08/20 08:11:50;;;;;;;16.37;11.23;;;18.10;99.90;;;;;;5022797;28;20707;-52
2021/08/20 08:14:17;;;;;;;17.70;11.33;;;18.20;99.90;;;;;;5019066;28;20523;-55
2021/08/20 08:16:44;;;;;;;18.23;12.07;;;18.20;99.90;;;;;;5022944;28;20628;-55
2021/08/20 08:19:11;;;;;;;19.23;11.80;;;18.30;99.90;;;;;;5024251;28;20350;-57
2021/08/20 08:21:38;;;;;;;19.10;11.77;;;18.40;99.90;;;;;;5021776;28;20342;-58
2021/08/20 08:24:05;;;;;;;18.57;11.13;;;18.30;99.90;;;;;;5021856;28;20694;-57
2021/08/20 08:26:32;;;;;;;16.60;11.57;;;18.30;99.90;;;;;;5020166;28;20203;-50
2021/08/20 08:28:58;;;;;;;15.70;10.97;;;18.40;99.90;;;;;;5023526;28;20262;-50
2021/08/20 08:31:25;;;;;;;16.43;11.83;;;18.30;99.90;;;;;;5017584;28;20335;-50
2021/08/20 08:33:52;;;;;;;14.50;10.73;;;18.40;99.90;;;;;;5018138;28;20223;-50
2021/08/20 08:36:19;;;;;;;16.70;11.70;;;18.40;99.90;;;;;;5025273;28;20201;-50
2021/08/20 08:38:47;;;;;;;15.57;10.40;;;18.40;99.90;;;;;;5003016;28;20208;-50
2021/08/20 08:41:14;;;;;;;17.20;11.77;;;18.50;99.90;;;;;;5018879;28;20296;-50
2021/08/20 08:43:42;;;;;;;17.87;11.93;;;18.50;99.90;;;;;;5020907;28;20298;-51
2021/08/20 08:46:10;;;;;;;17.53;11.60;;;18.50;99.90;;;;;;5022018;28;20236;-50
2021/08/20 08:48:40;;;;;;;19.80;11.63;;;18.70;99.90;;;;;;5017929;28;20211;-50
2021/08/20 08:51:09;;;;;;;15.53;10.73;;;18.80;99.90;;;;;;5016750;28;20207;-50
2021/08/20 08:53:38;;;;;;;17.33;11.50;;;19.00;99.90;;;;;;5017517;28;20310;-50
2021/08/20 08:56:05;;;;;;;14.43;11.40;;;19.20;99.90;;;;;;5023003;28;20247;-50
2021/08/20 08:58:32;;;;;;;14.40;10.53;;;19.30;99.90;;;;;;5023232;28;20242;-50
2021/08/20 09:00:59;;;;;;;18.77;11.60;;;19.40;99.90;;;;;;5021772;28;20199;-50
2021/08/20 09:03:28;;;;;;;16.20;10.73;;;19.30;99.90;;;;;;5019625;28;20244;-50
2021/08/20 09:05:57;;;;;;;14.67;10.33;;;19.30;99.90;;;;;;5008538;28;20207;-50
2021/08/20 09:08:27;;;;;;;15.10;10.60;;;19.40;99.90;;;;;;5015283;28;20208;-50
2021/08/20 09:10:55;;;;;;;16.70;10.07;;;19.50;99.90;;;;;;5021452;28;20232;-50
2021/08/20 09:13:27;;;;;;;15.80;10.23;;;19.50;99.90;;;;;;5021011;28;21184;-51
2021/08/20 09:16:14;;;;;;;16.13;11.00;;;19.50;99.90;;;;;;5025188;28;20240;-50
2021/08/20 09:18:41;;;;;;;15.10;11.27;;;19.60;99.90;;;;;;4996547;28;20231;-50
2021/08/20 09:21:15;;;;;;;14.97;10.37;;;19.80;99.90;;;;;;5018550;28;20214;-50
2021/08/20 09:23:42;;;;;;;14.23;10.90;;;19.80;99.90;;;;;;5014955;28;20741;-50
2021/08/20 09:26:09;;;;;;;12.53;9.77;;;19.60;99.90;;;;;;5004930;28;20261;-50
2021/08/20 09:28:36;;;;;;;13.60;9.03;;;19.60;99.90;;;;;;5005890;28;20201;-50
2021/08/20 09:31:09;;;;;;;9.60;8.27;;;19.70;99.90;;;;;;5018840;28;20726;-50
2021/08/20 09:33:37;;;;;;;10.47;8.53;;;19.70;99.90;;;;;;5018575;28;21634;-51
2021/08/20 09:36:12;;;;;;;10.63;8.73;;;20.00;99.90;;;;;;5019038;28;20279;-50
2021/08/20 09:38:51;;;;;;;10.60;8.17;;;20.10;99.90;;;;;;5016800;28;20351;-50
2021/08/20 09:41:45;;;;;;;9.80;6.83;;;20.30;99.90;;;;;;5019504;28;20789;-50
2021/08/20 09:44:20;;;;;;;9.30;6.67;;;20.40;99.90;;;;;;5000439;28;20306;-50
2021/08/20 09:46:51;;;;;;;7.57;5.97;;;20.60;99.90;;;;;;5024163;28;20242;-50
2021/08/20 09:49:18;;;;;;;7.97;6.13;;;20.50;99.90;;;;;;5012214;28;20203;-50
2021/08/20 09:51:47;;;;;;;8.30;6.10;;;20.40;99.90;;;;;;5020109;28;20314;-50
2021/08/20 09:54:16;;;;;;;6.40;5.23;;;20.30;99.90;;;;;;5020219;28;20309;-50
2021/08/20 09:56:59;;;;;;;6.17;5.13;;;20.20;99.90;;;;;;5019467;28;20208;-50
2021/08/20 09:59:29;;;;;;;7.80;5.30;;;20.30;99.90;;;;;;5018399;28;20204;-50
2021/08/20 10:02:00;;;;;;;6.67;5.50;;;20.20;99.90;;;;;;5019878;28;20742;-50
2021/08/20 10:04:30;;;;;;;7.57;6.03;;;20.10;99.90;;;;;;5020448;28;20608;-50
2021/08/20 10:06:58;;;;;;;9.40;7.17;;;20.00;99.90;;;;;;5024809;28;20658;-50
2021/08/20 10:09:28;;;;;;;10.13;7.57;;;20.00;99.90;;;;;;5017204;28;20297;-50
2021/08/20 10:11:56;;;;;;;10.70;8.47;;;19.90;99.90;;;;;;5025638;28;20240;-50
2021/08/20 10:14:25;;;;;;;13.67;9.80;;;19.80;99.90;;;;;;5017027;28;20206;-50
2021/08/20 10:16:52;;;;;;;12.13;9.93;;;19.90;99.90;;;;;;5020199;28;20280;-50
2021/08/20 10:19:20;;;;;;;23.87;9.90;;;20.10;99.90;;;;;;5015417;28;20582;-51
2021/08/20 10:21:46;;;;;;;11.73;9.00;;;20.20;99.90;;;;;;4999247;28;20307;-49
2021/08/20 10:24:14;;;;;;;14.20;10.70;;;20.40;99.90;;;;;;5019451;28;20496;-50
2021/08/20 10:26:45;;;;;;;11.83;9.87;;;20.30;99.90;;;;;;5025310;28;20204;-50
2021/08/20 10:29:14;;;;;;;12.37;10.40;;;20.20;99.90;;;;;;5027121;28;20243;-49
2021/08/20 10:31:43;;;;;;;11.73;8.93;;;20.40;99.90;;;;;;5021538;28;20567;-50
2021/08/20 10:34:39;;;;;;;10.77;8.80;;;20.40;99.90;;;;;;5020661;28;20217;-50
2021/08/20 10:37:06;;;;;;;10.93;8.53;;;20.50;99.90;;;;;;5029150;28;20259;-50
2021/08/20 10:39:34;;;;;;;12.83;9.47;;;20.50;99.90;;;;;;5025134;28;20792;-50
2021/08/20 10:42:16;;;;;;;10.73;8.57;;;20.70;99.90;;;;;;5021538;28;20610;-50
2021/08/20 10:44:47;;;;;;;10.70;8.97;;;20.80;99.90;;;;;;5003650;28;20323;-50
2021/08/20 10:47:22;;;;;;;11.63;8.03;;;21.00;99.90;;;;;;5014497;28;20323;-50
2021/08/20 10:49:50;;;;;;;12.83;8.50;;;21.00;99.90;;;;;;5018361;28;20227;-50
2021/08/20 10:52:44;;;;;;;12.47;9.37;;;21.30;99.90;;;;;;5021305;28;20241;-51
2021/08/20 10:55:23;;;;;;;10.67;8.47;;;21.40;99.90;;;;;;5026994;28;20664;-50
2021/08/20 10:57:50;;;;;;;11.67;8.57;;;21.40;99.90;;;;;;5023966;28;20371;-50
2021/08/20 11:00:20;;;;;;;11.10;9.13;;;21.30;99.90;;;;;;5023898;28;20270;-50
2021/08/20 11:02:48;;;;;;;13.07;9.80;;;21.00;99.90;;;;;;5029898;28;20701;-50
2021/08/20 11:05:16;;;;;;;11.43;9.00;;;21.10;99.90;;;;;;5034376;28;20232;-50
2021/08/20 11:07:43;;;;;;;12.00;9.77;;;21.10;99.90;;;;;;5033926;28;20215;-50
2021/08/20 11:10:10;;;;;;;15.23;10.37;;;21.00;99.90;;;;;;5035592;28;20237;-50
2021/08/20 11:12:47;;;;;;;14.13;10.23;;;20.90;99.90;;;;;;5035796;28;20699;-51
2021/08/20 11:15:17;;;;;;;12.00;10.00;;;21.00;99.90;;;;;;5036050;28;20207;-50
2021/08/20 11:18:05;;;;;;;11.67;8.53;;;21.10;99.90;;;;;;5019675;28;20692;-50
2021/08/20 11:20:37;;;;;;;12.03;8.27;;;21.20;99.90;;;;;;5032375;28;20242;-50
2021/08/20 11:23:04;;;;;;;9.93;7.93;;;21.40;99.90;;;;;;5033688;28;20236;-50
2021/08/20 11:25:52;;;;;;;10.30;8.53;;;21.70;99.90;;;;;;5023349;28;20370;-50
2021/08/20 11:28:49;;;;;;;10.60;8.93;;;22.00;99.90;;;;;;5022062;28;20209;-50
2021/08/20 11:31:16;;;;;;;10.87;8.93;;;21.70;79.60;;;;;;5020944;28;20716;-50
2021/08/20 11:33:47;;;;;;;13.00;9.83;;;21.60;99.90;;;;;;5000296;28;20201;-50
2021/08/20 11:36:18;;;;;;;10.53;8.80;;;21.80;70.50;;;;;;5021295;28;20219;-52
2021/08/20 11:38:56;;;;;;;10.43;9.30;;;22.20;99.90;;;;;;5023229;28;20374;-50
2021/08/20 11:41:44;;;;;;;12.73;9.97;;;22.70;99.90;;;;;;5022995;28;20286;-50
2021/08/20 11:44:13;;;;;;;13.07;10.27;;;23.00;1.00;;;;;;5019679;28;20262;-51
2021/08/20 11:46:45;;;;;;;11.57;9.27;;;22.40;3.70;;;;;;5019404;28;20228;-50
2021/08/20 11:49:24;;;;;;;10.23;8.77;;;22.00;37.90;;;;;;5022223;28;20283;-50
2021/08/20 11:51:51;;;;;;;9.60;8.60;;;22.00;99.90;;;;;;5020486;28;21147;-50
2021/08/20 11:54:18;;;;;;;8.67;7.77;;;22.00;95.70;;;;;;5024187;28;20287;-50
2021/08/20 11:56:55;;;;;;;9.00;8.07;;;22.20;73.40;;;;;;5024776;28;20260;-51
2021/08/20 11:59:23;;;;;;;11.47;8.07;;;22.20;17.40;;;;;;5018506;28;20295;-50
2021/08/20 12:01:57;;;;;;;9.57;7.63;;;22.30;67.50;;;;;;5027015;28;20196;-50
2021/08/20 12:04:35;;;;;;;10.57;7.50;;;22.30;70.30;;;;;;5025917;28;20215;-50
2021/08/20 12:07:02;;;;;;;8.20;7.03;;;22.70;71.80;;;;;;5027485;28;20196;-50
2021/08/20 12:09:34;;;;;;;7.80;7.00;;;22.90;1.00;;;;;;5020151;28;20324;-52
2021/08/20 12:12:03;;;;;;;7.20;5.70;;;23.00;1.00;;;;;;5009116;28;20267;-51
2021/08/20 12:14:52;;;;;;;6.60;5.77;;;23.30;1.00;;;;;;5028205;28;20306;-50
2021/08/20 12:17:23;;;;;;;6.40;5.80;;;22.90;1.00;;;;;;5020758;28;20204;-50
2021/08/20 12:19:51;;;;;;;7.30;6.60;;;22.80;1.00;;;;;;5020133;28;20209;-50
2021/08/20 12:22:18;;;;;;;6.97;6.27;;;22.70;1.00;;;;;;5022729;28;20265;-50
2021/08/20 12:24:48;;;;;;;7.67;6.97;;;22.50;99.90;;;;;;5020117;28;20227;-50
2021/08/20 12:27:18;;;;;;;7.80;6.90;;;22.20;1.00;;;;;;5018158;28;20205;-50
2021/08/20 12:30:06;;;;;;;7.90;7.10;;;22.00;1.00;;;;;;5019803;28;20297;-51
2021/08/20 12:32:41;;;;;;;9.20;7.17;;;22.00;1.00;;;;;;5019964;28;20316;-50
2021/08/20 12:35:18;;;;;;;8.33;7.53;;;21.90;1.00;;;;;;5019097;28;20579;-51
2021/08/20 12:38:02;;;;;;;7.70;6.90;;;21.70;42.50;;;;;;5022217;28;20206;-51
2021/08/20 12:40:35;;;;;;;8.83;7.93;;;21.70;80.90;;;;;;5024367;28;20291;-51
2021/08/20 12:43:02;;;;;;;8.60;7.70;;;21.70;99.90;;;;;;5003559;28;20201;-51